createdAt,value
2018-09-03T00:00:38.719Z,15.20
2018-09-03T00:03:07.179Z,15.20
2018-09-03T00:05:37.738Z,15.20
2018-09-03T00:08:06.271Z,15.20
2018-09-03T00:10:34.548Z,15.20
2018-09-03T00:13:03.056Z,15.20
2018-09-03T00:15:31.556Z,15.20
2018-09-03T00:17:59.866Z,15.20
2018-09-03T00:20:28.232Z,15.20
2018-09-03T00:22:56.654Z,15.20
2018-09-03T00:25:24.847Z,15.30
2018-09-03T00:27:53.030Z,15.30
2018-09-03T00:30:21.345Z,15.30
2018-09-03T00:32:57.394Z,15.30
2018-09-03T00:35:31.225Z,15.30
2018-09-03T00:38:04.995Z,15.40
2018-09-03T00:40:38.626Z,15.40
2018-09-03T00:43:12.467Z,15.30
2018-09-03T00:45:46.433Z,15.40
2018-09-03T00:48:14.818Z,15.40
2018-09-03T00:50:43.213Z,15.40
2018-09-03T00:53:11.592Z,15.40
2018-09-03T00:55:43.986Z,15.40
2018-09-03T00:58:12.403Z,15.40
2018-09-03T01:00:40.817Z,15.40
2018-09-03T01:03:09.216Z,15.40
2018-09-03T01:05:38.713Z,15.50
2018-09-03T01:08:07.030Z,15.50
2018-09-03T01:10:35.328Z,15.50
2018-09-03T01:13:03.704Z,15.50
2018-09-03T01:15:32.030Z,15.50
2018-09-03T01:18:01.486Z,15.50
2018-09-03T01:20:30.100Z,15.50
2018-09-03T01:22:58.528Z,15.50
2018-09-03T01:25:27.032Z,15.50
2018-09-03T01:27:55.540Z,15.50
2018-09-03T01:30:28.567Z,15.50
2018-09-03T01:32:56.852Z,15.50
2018-09-03T01:35:25.158Z,15.50
2018-09-03T01:37:53.441Z,15.50
2018-09-03T01:40:21.733Z,15.50
2018-09-03T01:42:50.141Z,15.50
2018-09-03T01:45:18.529Z,15.50
2018-09-03T01:47:46.861Z,15.50
2018-09-03T01:50:15.357Z,15.50
2018-09-03T01:52:43.754Z,15.50
2018-09-03T01:55:12.000Z,15.50
2018-09-03T01:57:46.740Z,15.50
2018-09-03T02:00:15.030Z,15.50
2018-09-03T02:02:43.170Z,15.50
2018-09-03T02:05:12.460Z,15.50
2018-09-03T02:07:40.889Z,15.50
2018-09-03T02:10:09.400Z,15.50
2018-09-03T02:12:37.771Z,15.50
2018-09-03T02:15:06.487Z,15.40
2018-09-03T02:17:34.875Z,15.50
2018-09-03T02:20:03.576Z,15.50
2018-09-03T02:22:32.066Z,15.40
2018-09-03T02:25:00.221Z,15.40
2018-09-03T02:27:28.587Z,15.40
2018-09-03T02:29:57.102Z,15.40
2018-09-03T02:32:25.486Z,15.40
2018-09-03T02:34:53.903Z,15.40
2018-09-03T02:37:22.383Z,15.40
2018-09-03T02:39:51.579Z,15.30
2018-09-03T02:42:19.892Z,15.30
2018-09-03T02:44:48.315Z,15.30
2018-09-03T02:47:16.626Z,15.30
2018-09-03T02:49:45.221Z,15.30
2018-09-03T02:52:13.709Z,15.30
2018-09-03T02:54:42.128Z,15.30
2018-09-03T02:57:10.724Z,15.30
2018-09-03T02:59:39.104Z,15.30
2018-09-03T03:02:07.726Z,15.30
2018-09-03T03:04:36.120Z,15.30
2018-09-03T03:07:04.562Z,15.30
2018-09-03T03:09:32.952Z,15.30
2018-09-03T03:12:01.325Z,15.30
2018-09-03T03:14:29.810Z,15.30
2018-09-03T03:16:58.087Z,15.30
2018-09-03T03:19:27.081Z,15.30
2018-09-03T03:21:55.443Z,15.30
2018-09-03T03:24:23.938Z,15.30
2018-09-03T03:26:52.520Z,15.40
2018-09-03T03:29:20.910Z,15.30
2018-09-03T03:31:49.341Z,15.30
2018-09-03T03:34:17.811Z,15.30
2018-09-03T03:36:46.142Z,15.30
2018-09-03T03:39:14.414Z,15.30
2018-09-03T03:41:42.717Z,15.30
2018-09-03T03:44:18.575Z,15.30
2018-09-03T03:46:46.910Z,15.30
2018-09-03T03:49:15.303Z,15.20
2018-09-03T03:51:43.578Z,15.30
2018-09-03T03:54:12.183Z,15.30
2018-09-03T03:56:40.580Z,15.30
2018-09-03T03:59:08.883Z,15.30
2018-09-03T04:01:37.281Z,15.30
2018-09-03T04:04:05.919Z,15.30
2018-09-03T04:06:34.295Z,15.30
2018-09-03T04:09:05.357Z,15.30
2018-09-03T04:11:33.643Z,15.30
2018-09-03T04:14:01.929Z,15.30
2018-09-03T04:16:30.204Z,15.20
2018-09-03T04:18:58.619Z,15.20
2018-09-03T04:21:27.145Z,15.20
2018-09-03T04:23:55.411Z,15.20
2018-09-03T04:26:23.934Z,15.20
2018-09-03T04:28:53.392Z,15.20
2018-09-03T04:31:21.771Z,15.20
2018-09-03T04:33:50.380Z,15.20
2018-09-03T04:36:18.806Z,15.20
2018-09-03T04:38:47.493Z,15.20
2018-09-03T04:41:15.644Z,15.20
2018-09-03T04:43:43.846Z,15.20
2018-09-03T04:46:12.156Z,15.20
2018-09-03T04:48:40.557Z,15.20
2018-09-03T04:51:09.069Z,15.20
2018-09-03T04:53:37.454Z,15.20
2018-09-03T04:56:05.928Z,15.30
2018-09-03T04:58:34.982Z,15.30
2018-09-03T05:01:03.571Z,15.30
2018-09-03T05:03:31.882Z,15.40
2018-09-03T05:06:00.386Z,15.40
2018-09-03T05:08:28.772Z,15.50
2018-09-03T05:10:57.169Z,15.50
2018-09-03T05:13:25.567Z,15.60
2018-09-03T05:15:53.752Z,15.60
2018-09-03T05:18:21.996Z,15.60
2018-09-03T05:20:50.379Z,15.60
2018-09-03T05:23:19.867Z,15.60
2018-09-03T05:25:48.500Z,15.60
2018-09-03T05:28:16.782Z,15.60
2018-09-03T05:30:45.233Z,15.60
2018-09-03T05:33:13.684Z,15.60
2018-09-03T05:35:42.832Z,15.70
2018-09-03T05:38:11.229Z,15.70
2018-09-03T05:40:40.638Z,15.70
2018-09-03T05:43:09.187Z,15.70
2018-09-03T05:45:37.658Z,15.80
2018-09-03T05:48:06.260Z,15.80
2018-09-03T05:50:34.607Z,15.80
2018-09-03T05:53:02.932Z,15.90
2018-09-03T05:55:31.430Z,15.90
2018-09-03T05:57:59.746Z,15.90
2018-09-03T06:00:28.133Z,15.90
2018-09-03T06:02:56.552Z,16.00
2018-09-03T06:05:25.035Z,15.90
2018-09-03T06:07:53.549Z,16.00
2018-09-03T06:10:22.201Z,16.10
2018-09-03T06:12:50.638Z,16.10
2018-09-03T06:15:19.239Z,16.20
2018-09-03T06:17:47.600Z,16.20
2018-09-03T06:20:15.854Z,16.30
2018-09-03T06:22:44.344Z,16.30
2018-09-03T06:25:12.628Z,16.40
2018-09-03T06:27:40.751Z,16.40
2018-09-03T06:30:09.168Z,16.50
2018-09-03T06:32:37.554Z,16.40
2018-09-03T06:35:05.986Z,16.50
2018-09-03T06:37:36.364Z,16.50
2018-09-03T06:40:04.878Z,16.50
2018-09-03T06:42:33.457Z,16.50
2018-09-03T06:45:02.132Z,16.50
2018-09-03T06:47:30.605Z,16.60
2018-09-03T06:49:59.001Z,16.60
2018-09-03T06:52:27.499Z,16.60
2018-09-03T06:54:55.877Z,16.60
2018-09-03T06:57:24.307Z,16.60
2018-09-03T06:59:52.607Z,16.60
2018-09-03T07:02:20.987Z,16.50
2018-09-03T07:04:49.395Z,16.50
2018-09-03T07:07:17.775Z,16.50
2018-09-03T07:09:46.283Z,16.50
2018-09-03T07:12:14.588Z,16.50
2018-09-03T07:14:43.100Z,16.40
2018-09-03T07:17:11.398Z,16.40
2018-09-03T07:19:39.797Z,16.40
2018-09-03T07:22:08.299Z,16.40
2018-09-03T07:24:36.598Z,16.40
2018-09-03T07:27:05.084Z,16.40
2018-09-03T07:29:33.793Z,16.40
2018-09-03T07:32:02.495Z,16.40
2018-09-03T07:34:30.708Z,16.50
2018-09-03T07:36:59.003Z,16.50
2018-09-03T07:39:27.418Z,16.60
2018-09-03T07:41:56.027Z,16.60
2018-09-03T07:44:24.611Z,16.60
2018-09-03T07:46:52.991Z,16.60
2018-09-03T07:49:21.394Z,16.60
2018-09-03T07:51:49.809Z,16.60
2018-09-03T07:54:18.206Z,16.60
2018-09-03T07:56:46.571Z,16.60
2018-09-03T07:59:15.004Z,16.60
2018-09-03T08:01:43.308Z,16.70
2018-09-03T08:04:11.688Z,16.70
2018-09-03T08:06:40.310Z,16.70
2018-09-03T08:09:10.308Z,16.70
2018-09-03T08:11:38.631Z,16.70
2018-09-03T08:14:07.247Z,16.70
2018-09-03T08:16:35.626Z,16.70
2018-09-03T08:19:04.135Z,16.70
2018-09-03T08:21:32.538Z,16.80
2018-09-03T08:24:00.952Z,16.80
2018-09-03T08:26:29.379Z,16.80
2018-09-03T08:28:57.953Z,16.80
2018-09-03T08:31:28.516Z,16.80
2018-09-03T08:33:56.907Z,16.80
2018-09-03T08:36:25.273Z,16.80
2018-09-03T08:38:53.741Z,16.80
2018-09-03T08:41:21.998Z,16.80
2018-09-03T08:43:50.300Z,16.80
2018-09-03T08:46:18.708Z,16.80
2018-09-03T08:48:46.969Z,16.70
2018-09-03T08:51:15.385Z,16.60
2018-09-03T08:53:43.804Z,16.60
2018-09-03T08:56:12.069Z,16.50
2018-09-03T08:58:40.547Z,16.50
2018-09-03T09:01:08.861Z,16.50
2018-09-03T09:03:40.765Z,16.50
2018-09-03T09:06:09.449Z,16.50
2018-09-03T09:08:37.956Z,16.60
2018-09-03T09:11:08.362Z,16.60
2018-09-03T09:13:36.779Z,16.60
2018-09-03T09:16:05.211Z,16.70
2018-09-03T09:18:33.932Z,16.70
2018-09-03T09:21:02.223Z,16.70
2018-09-03T09:23:30.614Z,16.80
2018-09-03T09:25:58.922Z,16.80
2018-09-03T09:28:27.306Z,16.90
2018-09-03T09:30:55.819Z,16.90
2018-09-03T09:33:24.198Z,17.00
2018-09-03T09:35:52.626Z,17.00
2018-09-03T09:38:20.997Z,17.00
2018-09-03T09:40:49.398Z,17.10
2018-09-03T09:43:17.773Z,17.10
2018-09-03T09:45:45.861Z,17.10
2018-09-03T09:48:14.103Z,17.10
2018-09-03T09:50:42.605Z,17.10
2018-09-03T09:53:10.904Z,17.10
2018-09-03T09:55:39.280Z,17.20
2018-09-03T09:58:07.590Z,17.20
2018-09-03T10:00:41.295Z,17.30
2018-09-03T10:03:09.626Z,17.50
2018-09-03T10:05:38.234Z,17.60
2018-09-03T10:08:06.606Z,17.90
2018-09-03T10:10:34.906Z,18.00
2018-09-03T10:13:03.207Z,18.10
2018-09-03T10:15:31.490Z,18.20
2018-09-03T10:17:59.808Z,18.30
2018-09-03T10:20:28.178Z,18.20
2018-09-03T10:22:56.607Z,18.20
2018-09-03T10:25:24.992Z,18.20
2018-09-03T10:27:53.510Z,18.20
2018-09-03T10:30:21.692Z,18.20
2018-09-03T10:32:50.195Z,18.30
2018-09-03T10:35:18.585Z,18.30
2018-09-03T10:37:47.111Z,18.30
2018-09-03T10:40:15.669Z,18.40
2018-09-03T10:42:44.215Z,18.40
2018-09-03T10:45:12.617Z,18.50
2018-09-03T10:47:41.093Z,18.50
2018-09-03T10:50:10.675Z,18.60
2018-09-03T10:52:39.018Z,18.70
2018-09-03T10:55:07.439Z,18.80
2018-09-03T10:57:35.851Z,18.90
2018-09-03T11:00:04.322Z,19.00
2018-09-03T11:02:32.879Z,19.20
2018-09-03T11:05:01.242Z,19.30
2018-09-03T11:07:29.851Z,19.20
2018-09-03T11:09:58.156Z,19.20
2018-09-03T11:12:26.559Z,19.20
2018-09-03T11:14:54.938Z,19.20
2018-09-03T11:17:23.334Z,19.10
2018-09-03T11:19:56.928Z,18.90
2018-09-03T11:22:26.111Z,18.90
2018-09-03T11:24:54.743Z,18.90
2018-09-03T11:27:23.295Z,18.80
2018-09-03T11:29:51.563Z,18.80
2018-09-03T11:32:19.878Z,18.80
2018-09-03T11:34:48.277Z,18.80
2018-09-03T11:37:17.239Z,18.80
2018-09-03T11:39:45.567Z,18.80
2018-09-03T11:42:13.890Z,18.80
2018-09-03T11:44:42.915Z,18.80
2018-09-03T11:47:11.297Z,18.70
2018-09-03T11:49:39.756Z,18.70
2018-09-03T11:52:08.095Z,18.70
2018-09-03T11:54:36.658Z,18.70
2018-09-03T11:57:05.085Z,18.70
2018-09-03T11:59:33.498Z,18.80
2018-09-03T12:02:02.497Z,19.00
2018-09-03T12:04:31.014Z,19.20
2018-09-03T12:06:59.276Z,19.50
2018-09-03T12:09:27.702Z,19.80
2018-09-03T12:11:56.610Z,20.00
2018-09-03T12:14:28.607Z,20.30
2018-09-03T12:16:57.168Z,20.50
2018-09-03T12:19:25.394Z,20.60
2018-09-03T12:21:53.697Z,20.60
2018-09-03T12:24:21.974Z,20.70
2018-09-03T12:26:50.383Z,20.80
2018-09-03T12:29:18.896Z,20.90
2018-09-03T12:31:47.183Z,21.00
2018-09-03T12:34:15.485Z,21.10
2018-09-03T12:36:43.781Z,21.20
2018-09-03T12:39:12.164Z,21.40
2018-09-03T12:41:40.605Z,21.50
2018-09-03T12:44:08.993Z,21.60
2018-09-03T12:46:37.609Z,21.70
2018-09-03T12:49:07.225Z,21.80
2018-09-03T12:51:35.560Z,21.80
2018-09-03T12:54:03.614Z,21.90
2018-09-03T12:56:32.642Z,21.90
2018-09-03T12:59:00.898Z,21.80
2018-09-03T13:01:29.422Z,21.80
2018-09-03T13:03:57.924Z,21.70
2018-09-03T13:06:26.315Z,21.80
2018-09-03T13:08:54.728Z,21.70
2018-09-03T13:11:24.848Z,21.70
2018-09-03T13:13:53.136Z,21.50
2018-09-03T13:16:21.538Z,21.30
2018-09-03T13:18:50.014Z,21.20
2018-09-03T13:21:18.339Z,21.00
2018-09-03T13:23:46.808Z,20.90
2018-09-03T13:26:14.981Z,20.80
2018-09-03T13:28:43.125Z,20.70
2018-09-03T13:31:11.346Z,20.60
2018-09-03T13:33:39.816Z,20.60
2018-09-03T13:36:08.303Z,20.60
2018-09-03T13:38:36.830Z,20.50
2018-09-03T13:41:05.214Z,20.40
2018-09-03T13:43:33.612Z,20.30
2018-09-03T13:46:02.333Z,20.20
2018-09-03T13:48:30.634Z,20.00
2018-09-03T13:50:59.056Z,20.00
2018-09-03T13:53:27.510Z,19.90
2018-09-03T13:55:55.910Z,19.80
2018-09-03T13:58:24.572Z,19.70
2018-09-03T14:00:53.079Z,19.70
2018-09-03T14:03:21.400Z,19.70
2018-09-03T14:05:49.725Z,19.70
2018-09-03T14:08:18.360Z,19.70
2018-09-03T14:10:46.862Z,19.80
2018-09-03T14:13:15.151Z,19.80
2018-09-03T14:15:43.672Z,19.90
2018-09-03T14:18:12.263Z,19.90
2018-09-03T14:20:40.540Z,20.00
2018-09-03T14:23:10.289Z,20.10
2018-09-03T14:25:38.742Z,20.10
2018-09-03T14:28:06.970Z,20.10
2018-09-03T14:30:35.592Z,20.20
2018-09-03T14:33:03.869Z,20.30
2018-09-03T14:35:32.358Z,20.30
2018-09-03T14:38:00.628Z,20.30
2018-09-03T14:40:28.760Z,20.40
2018-09-03T14:42:57.249Z,20.40
2018-09-03T14:45:25.655Z,20.30
2018-09-03T14:47:53.638Z,20.30
2018-09-03T14:50:22.192Z,20.30
2018-09-03T14:52:50.669Z,20.30
2018-09-03T14:55:19.645Z,20.30
2018-09-03T14:57:47.970Z,20.20
2018-09-03T15:00:16.496Z,20.10
2018-09-03T15:02:45.064Z,20.00
2018-09-03T15:05:13.609Z,20.00
2018-09-03T15:07:41.999Z,20.00
2018-09-03T15:10:11.534Z,20.00
2018-09-03T15:12:39.703Z,20.00
2018-09-03T15:15:08.028Z,20.00
2018-09-03T15:17:36.506Z,20.00
2018-09-03T15:20:05.082Z,20.00
2018-09-03T15:22:33.502Z,20.00
2018-09-03T15:25:01.905Z,20.00
2018-09-03T15:27:30.336Z,19.90
2018-09-03T15:29:58.722Z,19.90
2018-09-03T15:32:27.194Z,19.80
2018-09-03T15:34:55.516Z,19.80
2018-09-03T15:37:23.903Z,19.80
2018-09-03T15:39:52.522Z,19.80
2018-09-03T15:42:20.894Z,19.80
2018-09-03T15:44:49.406Z,19.90
2018-09-03T15:47:17.810Z,19.80
2018-09-03T15:49:45.955Z,19.80
2018-09-03T15:52:14.313Z,19.80
2018-09-03T15:54:42.807Z,19.80
2018-09-03T15:57:11.205Z,19.80
2018-09-03T15:59:40.819Z,19.70
2018-09-03T16:02:09.448Z,19.70
2018-09-03T16:04:37.955Z,19.70
2018-09-03T16:07:06.331Z,19.60
2018-09-03T16:09:34.593Z,19.60
2018-09-03T16:12:03.221Z,19.50
2018-09-03T16:14:31.625Z,19.50
2018-09-03T16:16:59.924Z,19.50
2018-09-03T16:19:28.441Z,19.50
2018-09-03T16:21:56.817Z,19.50
2018-09-03T16:24:25.027Z,19.40
2018-09-03T16:26:53.327Z,19.40
2018-09-03T16:29:21.633Z,19.30
2018-09-03T16:31:52.475Z,19.30
2018-09-03T16:34:20.783Z,19.20
2018-09-03T16:36:49.307Z,19.20
2018-09-03T16:39:17.909Z,19.10
2018-09-03T16:41:46.326Z,19.00
2018-09-03T16:44:14.810Z,19.00
2018-09-03T16:46:43.393Z,19.00
2018-09-03T16:49:11.877Z,18.90
2018-09-03T16:51:40.322Z,18.80
2018-09-03T16:54:08.710Z,18.80
2018-09-03T16:56:37.080Z,18.70
2018-09-03T16:59:05.494Z,18.70
2018-09-03T17:01:34.064Z,18.60
2018-09-03T17:04:02.349Z,18.50
2018-09-03T17:06:30.680Z,18.40
2018-09-03T17:08:59.115Z,18.40
2018-09-03T17:11:28.014Z,18.30
2018-09-03T17:13:56.407Z,18.20
2018-09-03T17:16:24.744Z,18.20
2018-09-03T17:18:53.368Z,18.10
2018-09-03T17:21:21.917Z,18.00
2018-09-03T17:23:50.310Z,18.00
2018-09-03T17:26:18.910Z,17.90
2018-09-03T17:28:47.407Z,17.90
2018-09-03T17:31:15.720Z,17.80
2018-09-03T17:33:44.227Z,17.70
2018-09-03T17:36:12.727Z,17.70
2018-09-03T17:38:41.328Z,17.60
2018-09-03T17:41:10.972Z,17.50
2018-09-03T17:43:39.351Z,17.50
2018-09-03T17:46:08.347Z,17.40
2018-09-03T17:48:37.072Z,17.30
2018-09-03T17:51:05.754Z,17.30
2018-09-03T17:53:35.417Z,17.20
2018-09-03T17:56:04.117Z,17.10
2018-09-03T17:58:32.675Z,17.00
2018-09-03T18:01:01.339Z,16.90
2018-09-03T18:03:29.798Z,16.90
2018-09-03T18:05:58.427Z,16.80
2018-09-03T18:08:27.356Z,16.70
2018-09-03T18:10:57.898Z,16.60
2018-09-03T18:13:26.285Z,16.50
2018-09-03T18:15:54.709Z,16.40
2018-09-03T18:18:22.959Z,16.30
2018-09-03T18:20:51.559Z,16.30
2018-09-03T18:23:20.182Z,16.20
2018-09-03T18:25:48.778Z,16.10
2018-09-03T18:28:17.102Z,16.10
2018-09-03T18:30:45.792Z,16.00
2018-09-03T18:33:14.010Z,16.00
2018-09-03T18:35:42.596Z,15.90
2018-09-03T18:38:11.032Z,15.90
2018-09-03T18:40:39.763Z,15.90
2018-09-03T18:43:08.199Z,15.80
2018-09-03T18:45:36.815Z,15.80
2018-09-03T18:48:06.639Z,15.80
2018-09-03T18:50:35.875Z,15.80
2018-09-03T18:53:04.288Z,15.70
2018-09-03T18:55:32.870Z,15.70
2018-09-03T18:58:01.557Z,15.60
2018-09-03T19:00:30.297Z,15.60
2018-09-03T19:02:58.207Z,15.60
2018-09-03T19:05:27.793Z,15.60
2018-09-03T19:07:56.304Z,15.50
2018-09-03T19:10:25.102Z,15.50
2018-09-03T19:12:53.904Z,15.50
2018-09-03T19:15:22.518Z,15.50
2018-09-03T19:17:50.917Z,15.40
2018-09-03T19:20:19.632Z,15.40
2018-09-03T19:22:48.000Z,15.40
2018-09-03T19:25:16.590Z,15.30
2018-09-03T19:27:44.919Z,15.30
2018-09-03T19:30:13.143Z,15.30
2018-09-03T19:32:41.567Z,15.30
2018-09-03T19:35:10.021Z,15.20
2018-09-03T19:37:39.847Z,15.30
2018-09-03T19:40:08.554Z,15.30
2018-09-03T19:42:36.971Z,15.30
2018-09-03T19:45:06.411Z,15.20
2018-09-03T19:47:40.620Z,15.30
2018-09-03T19:50:09.210Z,15.30
2018-09-03T19:52:37.712Z,15.40
2018-09-03T19:55:06.112Z,15.40
2018-09-03T19:57:34.489Z,15.40
2018-09-03T20:00:02.910Z,15.50
2018-09-03T20:02:31.323Z,15.50
2018-09-03T20:04:59.612Z,15.50
2018-09-03T20:07:28.210Z,15.50
2018-09-03T20:09:56.538Z,15.50
2018-09-03T20:12:24.853Z,15.50
2018-09-03T20:14:53.432Z,15.60
2018-09-03T20:17:23.026Z,15.60
2018-09-03T20:19:51.941Z,15.60
2018-09-03T20:22:20.224Z,15.70
2018-09-03T20:24:48.748Z,15.70
2018-09-03T20:27:17.567Z,15.70
2018-09-03T20:29:45.711Z,15.70
2018-09-03T20:32:13.963Z,15.70
2018-09-03T20:34:42.575Z,15.70
2018-09-03T20:37:11.303Z,15.70
2018-09-03T20:39:39.639Z,15.70
2018-09-03T20:42:08.583Z,15.70
2018-09-03T20:44:36.941Z,15.60
2018-09-03T20:47:05.476Z,15.60
2018-09-03T20:49:33.974Z,15.60
2018-09-03T20:52:02.262Z,15.60
2018-09-03T20:54:30.754Z,15.50
2018-09-03T20:56:59.071Z,15.50
2018-09-03T20:59:27.543Z,15.60
2018-09-03T21:01:55.771Z,15.60
2018-09-03T21:04:26.109Z,15.60
2018-09-03T21:06:54.607Z,15.60
2018-09-03T21:09:22.997Z,15.60
2018-09-03T21:11:51.532Z,15.60
2018-09-03T21:14:21.022Z,15.60
2018-09-03T21:16:49.563Z,15.60
2018-09-03T21:19:18.038Z,15.60
2018-09-03T21:21:46.585Z,15.60
2018-09-03T21:24:15.026Z,15.70
2018-09-03T21:26:43.530Z,15.70
2018-09-03T21:29:11.919Z,15.70
2018-09-03T21:31:40.246Z,15.70
2018-09-03T21:34:08.766Z,15.70
2018-09-03T21:36:37.096Z,15.70
2018-09-03T21:39:06.022Z,15.70
2018-09-03T21:41:34.255Z,15.70
2018-09-03T21:44:02.914Z,15.70
2018-09-03T21:46:31.431Z,15.70
2018-09-03T21:48:59.844Z,15.70
2018-09-03T21:51:34.498Z,15.60
2018-09-03T21:54:08.430Z,15.60
2018-09-03T21:56:36.818Z,15.60
2018-09-03T21:59:05.409Z,15.60
2018-09-03T22:01:33.831Z,15.60
2018-09-03T22:04:04.464Z,15.50
2018-09-03T22:06:32.867Z,15.50
2018-09-03T22:09:01.509Z,15.50
2018-09-03T22:11:29.968Z,15.40
2018-09-03T22:13:59.487Z,15.40
2018-09-03T22:16:28.716Z,15.30
2018-09-03T22:18:56.941Z,15.40
2018-09-03T22:21:25.185Z,15.30
2018-09-03T22:23:53.509Z,15.30
2018-09-03T22:26:21.885Z,15.30
2018-09-03T22:28:50.217Z,15.30
2018-09-03T22:31:18.805Z,15.20
2018-09-03T22:33:47.074Z,15.20
2018-09-03T22:36:15.485Z,15.10
2018-09-03T22:38:43.785Z,15.10
2018-09-03T22:41:12.273Z,15.00
2018-09-03T22:43:40.668Z,15.00
2018-09-03T22:46:09.104Z,14.90
2018-09-03T22:48:37.476Z,14.90
2018-09-03T22:51:05.598Z,14.90
2018-09-03T22:53:33.856Z,14.80
2018-09-03T22:56:02.286Z,14.70
2018-09-03T22:58:30.579Z,14.70
2018-09-03T23:00:58.776Z,14.70
2018-09-03T23:03:26.986Z,14.60
2018-09-03T23:05:55.494Z,14.60
2018-09-03T23:08:23.889Z,14.50
2018-09-03T23:10:52.190Z,14.50
2018-09-03T23:13:20.975Z,14.40
2018-09-03T23:15:52.385Z,14.40
2018-09-03T23:18:21.912Z,14.40
2018-09-03T23:20:50.273Z,14.30
2018-09-03T23:23:18.667Z,14.30
2018-09-03T23:25:47.674Z,14.30
2018-09-03T23:28:15.828Z,14.20
2018-09-03T23:30:43.984Z,14.20
2018-09-03T23:33:12.568Z,14.20
2018-09-03T23:35:40.972Z,14.20
2018-09-03T23:38:09.372Z,14.20
2018-09-03T23:40:37.668Z,14.20
2018-09-03T23:43:05.946Z,14.20
2018-09-03T23:45:34.387Z,14.20
2018-09-03T23:48:02.947Z,14.20
2018-09-03T23:50:31.477Z,14.20
2018-09-03T23:52:59.983Z,14.30
2018-09-03T23:55:28.694Z,14.30
2018-09-03T23:57:56.995Z,14.30
